sensor_id;sensor_type;location;lat;lon;timestamp;pressure;altitude;pressure_sealevel;temperature;humidity
12073;BME280;6098;49.004;8.372;2023-04-16T00:06:11;100415.75;;;10.40;97.26
12073;BME280;6098;49.004;8.372;2023-04-16T00:21:05;100426.94;;;10.35;97.22
12073;BME280;6098;49.004;8.372;2023-04-16T00:35:55;100427.69;;;10.39;98.86
12073;BME280;6098;49.004;8.372;2023-04-16T00:50:47;100437.03;;;10.37;100.00
12073;BME280;6098;49.004;8.372;2023-04-16T01:05:39;100435.77;;;10.36;99.80
12073;BME280;6098;49.004;8.372;2023-04-16T01:20:34;100440.61;;;10.36;99.91
12073;BME280;6098;49.004;8.372;2023-04-16T01:35:23;100443.77;;;10.34;99.88
12073;BME280;6098;49.004;8.372;2023-04-16T01:50:16;100449.74;;;10.28;98.95
12073;BME280;6098;49.004;8.372;2023-04-16T02:05:08;100454.66;;;10.27;98.35
12073;BME280;6098;49.004;8.372;2023-04-16T02:20:00;100453.42;;;10.24;97.56
12073;BME280;6098;49.004;8.372;2023-04-16T02:34:53;100463.86;;;10.28;98.32
12073;BME280;6098;49.004;8.372;2023-04-16T02:49:44;100465.20;;;10.28;98.03
12073;BME280;6098;49.004;8.372;2023-04-16T03:04:37;100476.16;;;10.30;97.29
12073;BME280;6098;49.004;8.372;2023-04-16T03:19:30;100480.59;;;10.30;97.88
12073;BME280;6098;49.004;8.372;2023-04-16T03:34:21;100481.52;;;10.29;98.44
12073;BME280;6098;49.004;8.372;2023-04-16T03:49:13;100492.56;;;10.28;98.90
12073;BME280;6098;49.004;8.372;2023-04-16T04:04:08;100496.36;;;10.21;97.76
12073;BME280;6098;49.004;8.372;2023-04-16T04:18:59;100494.34;;;10.28;98.77
12073;BME280;6098;49.004;8.372;2023-04-16T04:33:51;100511.30;;;10.24;91.89
12073;BME280;6098;49.004;8.372;2023-04-16T04:48:43;100524.30;;;10.30;91.58
12073;BME280;6098;49.004;8.372;2023-04-16T05:03:35;100545.17;;;10.26;89.97
12073;BME280;6098;49.004;8.372;2023-04-16T05:18:27;100562.14;;;10.22;87.30
12073;BME280;6098;49.004;8.372;2023-04-16T05:33:18;100577.91;;;10.25;88.11
12073;BME280;6098;49.004;8.372;2023-04-16T05:48:10;100584.34;;;10.31;88.42
12073;BME280;6098;49.004;8.372;2023-04-16T06:03:02;100598.22;;;10.25;87.67
12073;BME280;6098;49.004;8.372;2023-04-16T06:17:54;100604.47;;;10.35;86.20
12073;BME280;6098;49.004;8.372;2023-04-16T06:32:45;100615.67;;;10.44;84.78
12073;BME280;6098;49.004;8.372;2023-04-16T06:47:36;100628.50;;;10.43;84.04
12073;BME280;6098;49.004;8.372;2023-04-16T07:02:27;100631.42;;;10.61;85.05
12073;BME280;6098;49.004;8.372;2023-04-16T07:17:19;100636.72;;;10.73;85.04
12073;BME280;6098;49.004;8.372;2023-04-16T07:32:12;100650.91;;;10.84;81.89
12073;BME280;6098;49.004;8.372;2023-04-16T07:47:03;100659.12;;;10.76;81.77
12073;BME280;6098;49.004;8.372;2023-04-16T08:01:55;100662.20;;;10.78;78.37
12073;BME280;6098;49.004;8.372;2023-04-16T08:16:46;100671.88;;;11.03;77.29
12073;BME280;6098;49.004;8.372;2023-04-16T08:31:39;100694.43;;;11.03;77.61
12073;BME280;6098;49.004;8.372;2023-04-16T08:46:31;100709.06;;;11.27;75.89
12073;BME280;6098;49.004;8.372;2023-04-16T09:01:24;100726.02;;;11.22;75.85
12073;BME280;6098;49.004;8.372;2023-04-16T09:16:17;100729.97;;;11.11;75.49
12073;BME280;6098;49.004;8.372;2023-04-16T09:31:14;100729.23;;;11.19;75.30
12073;BME280;6098;49.004;8.372;2023-04-16T09:46:10;100741.80;;;11.27;76.19
12073;BME280;6098;49.004;8.372;2023-04-16T10:01:01;100752.08;;;11.36;76.42
12073;BME280;6098;49.004;8.372;2023-04-16T10:15:54;100755.98;;;11.38;77.52
12073;BME280;6098;49.004;8.372;2023-04-16T10:30:43;100766.48;;;11.40;78.24
12073;BME280;6098;49.004;8.372;2023-04-16T10:45:37;100777.23;;;11.49;78.54
12073;BME280;6098;49.004;8.372;2023-04-16T11:00:31;100779.64;;;11.69;78.30
12073;BME280;6098;49.004;8.372;2023-04-16T11:15:23;100789.86;;;11.42;80.87
12073;BME280;6098;49.004;8.372;2023-04-16T11:30:15;100794.19;;;11.21;85.62
12073;BME280;6098;49.004;8.372;2023-04-16T11:45:07;100797.00;;;11.03;87.43
12073;BME280;6098;49.004;8.372;2023-04-16T11:59:59;100801.48;;;11.01;90.63
12073;BME280;6098;49.004;8.372;2023-04-16T12:14:50;100804.00;;;10.93;92.67
12073;BME280;6098;49.004;8.372;2023-04-16T12:29:41;100813.09;;;10.98;94.12
12073;BME280;6098;49.004;8.372;2023-04-16T12:44:34;100810.33;;;10.88;95.37
12073;BME280;6098;49.004;8.372;2023-04-16T12:59:26;100812.92;;;10.90;96.10
12073;BME280;6098;49.004;8.372;2023-04-16T13:14:18;100815.70;;;10.86;96.00
12073;BME280;6098;49.004;8.372;2023-04-16T13:29:10;100810.52;;;10.96;97.49
12073;BME280;6098;49.004;8.372;2023-04-16T13:44:02;100805.32;;;11.06;96.70
12073;BME280;6098;49.004;8.372;2023-04-16T13:58:54;100810.63;;;11.06;95.59
12073;BME280;6098;49.004;8.372;2023-04-16T14:13:46;100807.86;;;11.09;95.56
12073;BME280;6098;49.004;8.372;2023-04-16T14:28:38;100810.23;;;11.17;95.55
12073;BME280;6098;49.004;8.372;2023-04-16T14:43:29;100802.59;;;11.20;95.21
12073;BME280;6098;49.004;8.372;2023-04-16T14:58:20;100807.77;;;11.24;96.66
12073;BME280;6098;49.004;8.372;2023-04-16T15:13:11;100812.18;;;11.25;96.40
12073;BME280;6098;49.004;8.372;2023-04-16T15:28:02;100815.16;;;11.28;96.95
12073;BME280;6098;49.004;8.372;2023-04-16T15:42:54;100823.50;;;11.29;97.81
12073;BME280;6098;49.004;8.372;2023-04-16T15:57:46;100834.47;;;11.33;99.10
12073;BME280;6098;49.004;8.372;2023-04-16T16:12:38;100832.02;;;11.27;97.55
12073;BME280;6098;49.004;8.372;2023-04-16T16:27:30;100843.59;;;11.24;97.06
12073;BME280;6098;49.004;8.372;2023-04-16T16:42:21;100835.70;;;11.22;97.93
12073;BME280;6098;49.004;8.372;2023-04-16T16:57:14;100832.98;;;11.24;99.71
12073;BME280;6098;49.004;8.372;2023-04-16T17:12:06;100836.34;;;11.17;99.14
12073;BME280;6098;49.004;8.372;2023-04-16T17:26:58;100845.12;;;11.18;100.00
12073;BME280;6098;49.004;8.372;2023-04-16T17:41:50;100856.11;;;11.08;100.00
12073;BME280;6098;49.004;8.372;2023-04-16T17:56:42;100869.88;;;11.05;100.00
12073;BME280;6098;49.004;8.372;2023-04-16T18:11:33;100880.06;;;11.04;100.00
12073;BME280;6098;49.004;8.372;2023-04-16T18:26:25;100895.33;;;10.98;100.00
12073;BME280;6098;49.004;8.372;2023-04-16T18:41:20;100897.28;;;10.92;100.00
12073;BME280;6098;49.004;8.372;2023-04-16T18:56:14;100896.21;;;10.84;100.00
12073;BME280;6098;49.004;8.372;2023-04-16T19:11:07;100902.83;;;10.85;100.00
12073;BME280;6098;49.004;8.372;2023-04-16T19:25:59;100911.02;;;10.78;100.00
12073;BME280;6098;49.004;8.372;2023-04-16T19:40:51;100918.97;;;10.78;100.00
12073;BME280;6098;49.004;8.372;2023-04-16T19:55:42;100924.30;;;10.76;100.00
12073;BME280;6098;49.004;8.372;2023-04-16T20:10:34;100935.39;;;10.75;100.00
12073;BME280;6098;49.004;8.372;2023-04-16T20:25:27;100931.86;;;10.75;100.00
12073;BME280;6098;49.004;8.372;2023-04-16T20:40:19;100929.70;;;10.74;100.00
12073;BME280;6098;49.004;8.372;2023-04-16T20:55:11;100919.05;;;10.75;100.00
12073;BME280;6098;49.004;8.372;2023-04-16T21:10:04;100905.89;;;10.72;100.00
12073;BME280;6098;49.004;8.372;2023-04-16T21:24:57;100906.02;;;10.67;100.00
12073;BME280;6098;49.004;8.372;2023-04-16T21:39:48;100916.95;;;10.71;100.00
12073;BME280;6098;49.004;8.372;2023-04-16T21:54:39;100901.42;;;10.73;100.00
12073;BME280;6098;49.004;8.372;2023-04-16T22:09:31;100899.72;;;10.71;100.00
12073;BME280;6098;49.004;8.372;2023-04-16T22:24:24;100896.61;;;10.72;100.00
12073;BME280;6098;49.004;8.372;2023-04-16T22:39:17;100896.94;;;10.76;100.00
12073;BME280;6098;49.004;8.372;2023-04-16T22:54:09;100896.81;;;10.80;100.00
12073;BME280;6098;49.004;8.372;2023-04-16T23:09:01;100898.52;;;10.81;100.00
12073;BME280;6098;49.004;8.372;2023-04-16T23:23:53;100894.42;;;10.85;100.00
12073;BME280;6098;49.004;8.372;2023-04-16T23:38:44;100891.13;;;10.78;100.00
12073;BME280;6098;49.004;8.372;2023-04-16T23:53:36;100887.28;;;10.73;100.00
